sensor_id;sensor_type;location;lat;lon;timestamp;pressure;altitude;pressure_sealevel;temperature;humidity
69411;BME280;56604;48.652;9.194;2023-05-21T00:02:02;95859.34;;;15.74;78.80
69411;BME280;56604;48.652;9.194;2023-05-21T00:04:29;95859.16;;;15.71;79.26
69411;BME280;56604;48.652;9.194;2023-05-21T00:06:56;95859.69;;;15.68;79.44
69411;BME280;56604;48.652;9.194;2023-05-21T00:09:23;95859.41;;;15.69;79.88
69411;BME280;56604;48.652;9.194;2023-05-21T00:11:48;95850.94;;;15.67;80.12
69411;BME280;56604;48.652;9.194;2023-05-21T00:14:14;95848.94;;;15.59;80.64
69411;BME280;56604;48.652;9.194;2023-05-21T00:16:39;95843.75;;;15.54;80.84
69411;BME280;56604;48.652;9.194;2023-05-21T00:19:05;95852.75;;;15.53;80.78
69411;BME280;56604;48.652;9.194;2023-05-21T00:21:30;95849.13;;;15.49;81.09
69411;BME280;56604;48.652;9.194;2023-05-21T00:23:56;95850.69;;;15.50;81.13
69411;BME280;56604;48.652;9.194;2023-05-21T00:26:21;95846.19;;;15.50;81.18
69411;BME280;56604;48.652;9.194;2023-05-21T00:28:48;95844.41;;;15.46;81.62
69411;BME280;56604;48.652;9.194;2023-05-21T00:31:13;95837.44;;;15.50;81.13
69411;BME280;56604;48.652;9.194;2023-05-21T00:33:40;95829.31;;;15.46;81.36
69411;BME280;56604;48.652;9.194;2023-05-21T00:36:05;95824.38;;;15.40;81.54
69411;BME280;56604;48.652;9.194;2023-05-21T00:38:30;95822.22;;;15.42;81.72
69411;BME280;56604;48.652;9.194;2023-05-21T00:41:00;95823.28;;;15.41;81.90
69411;BME280;56604;48.652;9.194;2023-05-21T00:43:26;95820.91;;;15.39;81.96
69411;BME280;56604;48.652;9.194;2023-05-21T00:45:51;95820.16;;;15.39;81.82
69411;BME280;56604;48.652;9.194;2023-05-21T00:48:18;95820.66;;;15.41;81.57
69411;BME280;56604;48.652;9.194;2023-05-21T00:50:44;95815.34;;;15.41;81.72
69411;BME280;56604;48.652;9.194;2023-05-21T00:53:11;95813.78;;;15.40;81.86
69411;BME280;56604;48.652;9.194;2023-05-21T00:55:38;95812.00;;;15.35;82.47
69411;BME280;56604;48.652;9.194;2023-05-21T00:58:04;95809.63;;;15.34;82.24
69411;BME280;56604;48.652;9.194;2023-05-21T01:00:34;95812.78;;;15.36;81.84
69411;BME280;56604;48.652;9.194;2023-05-21T01:03:00;95819.75;;;15.32;82.60
69411;BME280;56604;48.652;9.194;2023-05-21T01:05:27;95813.16;;;15.29;82.74
69411;BME280;56604;48.652;9.194;2023-05-21T01:07:53;95812.97;;;15.25;82.98
69411;BME280;56604;48.652;9.194;2023-05-21T01:10:20;95811.38;;;15.24;83.07
69411;BME280;56604;48.652;9.194;2023-05-21T01:12:46;95812.16;;;15.25;83.23
69411;BME280;56604;48.652;9.194;2023-05-21T01:15:12;95810.47;;;15.15;83.58
69411;BME280;56604;48.652;9.194;2023-05-21T01:17:38;95811.94;;;15.21;83.35
69411;BME280;56604;48.652;9.194;2023-05-21T01:20:04;95810.97;;;15.17;83.84
69411;BME280;56604;48.652;9.194;2023-05-21T01:22:50;95797.78;;;15.12;83.94
69411;BME280;56604;48.652;9.194;2023-05-21T01:25:16;95800.13;;;15.14;83.55
69411;BME280;56604;48.652;9.194;2023-05-21T01:27:41;95802.06;;;15.08;84.30
69411;BME280;56604;48.652;9.194;2023-05-21T01:30:07;95803.47;;;15.05;84.37
69411;BME280;56604;48.652;9.194;2023-05-21T01:32:53;95804.81;;;15.03;84.63
69411;BME280;56604;48.652;9.194;2023-05-21T01:38:03;95801.66;;;15.01;84.78
69411;BME280;56604;48.652;9.194;2023-05-21T01:40:40;95803.59;;;14.95;85.30
69411;BME280;56604;48.652;9.194;2023-05-21T01:43:09;95806.53;;;14.94;85.15
69411;BME280;56604;48.652;9.194;2023-05-21T01:45:38;95799.66;;;14.93;85.44
69411;BME280;56604;48.652;9.194;2023-05-21T01:48:05;95799.66;;;14.93;85.18
69411;BME280;56604;48.652;9.194;2023-05-21T01:50:33;95800.97;;;14.95;85.56
69411;BME280;56604;48.652;9.194;2023-05-21T01:52:58;95792.22;;;14.95;85.09
69411;BME280;56604;48.652;9.194;2023-05-21T01:55:25;95795.53;;;14.87;85.76
69411;BME280;56604;48.652;9.194;2023-05-21T01:57:54;95791.09;;;14.82;86.12
69411;BME280;56604;48.652;9.194;2023-05-21T02:00:20;95790.59;;;14.80;86.22
69411;BME280;56604;48.652;9.194;2023-05-21T02:02:47;95790.59;;;14.80;85.98
69411;BME280;56604;48.652;9.194;2023-05-21T02:05:12;95791.16;;;14.77;86.30
69411;BME280;56604;48.652;9.194;2023-05-21T02:07:38;95783.72;;;14.79;86.17
69411;BME280;56604;48.652;9.194;2023-05-21T02:10:04;95796.09;;;14.83;86.47
69411;BME280;56604;48.652;9.194;2023-05-21T02:12:30;95795.72;;;14.71;87.07
69411;BME280;56604;48.652;9.194;2023-05-21T02:14:55;95797.88;;;14.69;86.69
69411;BME280;56604;48.652;9.194;2023-05-21T02:17:21;95801.09;;;14.66;86.74
69411;BME280;56604;48.652;9.194;2023-05-21T02:19:48;95798.94;;;14.68;87.40
69411;BME280;56604;48.652;9.194;2023-05-21T02:22:14;95793.44;;;14.65;86.97
69411;BME280;56604;48.652;9.194;2023-05-21T02:24:39;95800.16;;;14.57;87.85
69411;BME280;56604;48.652;9.194;2023-05-21T02:27:05;95795.94;;;14.56;87.95
69411;BME280;56604;48.652;9.194;2023-05-21T02:29:31;95794.59;;;14.58;87.51
69411;BME280;56604;48.652;9.194;2023-05-21T02:31:56;95791.44;;;14.56;87.44
69411;BME280;56604;48.652;9.194;2023-05-21T02:34:21;95785.66;;;14.54;87.75
69411;BME280;56604;48.652;9.194;2023-05-21T02:36:48;95787.25;;;14.50;87.95
69411;BME280;56604;48.652;9.194;2023-05-21T02:39:16;95786.47;;;14.50;88.03
69411;BME280;56604;48.652;9.194;2023-05-21T02:41:41;95788.03;;;14.51;87.99
69411;BME280;56604;48.652;9.194;2023-05-21T02:44:07;95783.09;;;14.44;88.61
69411;BME280;56604;48.652;9.194;2023-05-21T02:46:32;95775.19;;;14.44;88.43
69411;BME280;56604;48.652;9.194;2023-05-21T02:48:58;95787.41;;;14.40;89.01
69411;BME280;56604;48.652;9.194;2023-05-21T02:51:23;95775.59;;;14.32;89.37
69411;BME280;56604;48.652;9.194;2023-05-21T02:53:48;95780.88;;;14.32;89.48
69411;BME280;56604;48.652;9.194;2023-05-21T02:56:13;95775.38;;;14.29;89.52
69411;BME280;56604;48.652;9.194;2023-05-21T02:58:39;95773.72;;;14.33;89.60
69411;BME280;56604;48.652;9.194;2023-05-21T03:01:04;95778.28;;;14.27;89.47
69411;BME280;56604;48.652;9.194;2023-05-21T03:03:29;95769.78;;;14.30;89.83
69411;BME280;56604;48.652;9.194;2023-05-21T03:05:56;95768.06;;;14.21;89.67
69411;BME280;56604;48.652;9.194;2023-05-21T03:08:22;95772.56;;;14.20;90.49
69411;BME280;56604;48.652;9.194;2023-05-21T03:10:48;95777.84;;;14.20;90.27
69411;BME280;56604;48.652;9.194;2023-05-21T03:13:14;95775.75;;;14.17;90.10
69411;BME280;56604;48.652;9.194;2023-05-21T03:15:39;95770.47;;;14.17;90.33
69411;BME280;56604;48.652;9.194;2023-05-21T03:18:04;95775.28;;;14.15;90.39
69411;BME280;56604;48.652;9.194;2023-05-21T03:20:30;95771.13;;;14.09;90.40
69411;BME280;56604;48.652;9.194;2023-05-21T03:22:56;95774.81;;;14.08;91.32
69411;BME280;56604;48.652;9.194;2023-05-21T03:25:21;95768.19;;;14.10;90.38
69411;BME280;56604;48.652;9.194;2023-05-21T03:27:49;95770.03;;;14.10;90.48
69411;BME280;56604;48.652;9.194;2023-05-21T03:30:14;95774.78;;;14.13;90.23
69411;BME280;56604;48.652;9.194;2023-05-21T03:32:40;95769.53;;;14.08;90.49
69411;BME280;56604;48.652;9.194;2023-05-21T03:35:06;95764.81;;;14.05;90.52
69411;BME280;56604;48.652;9.194;2023-05-21T03:37:31;95762.69;;;14.07;90.51
69411;BME280;56604;48.652;9.194;2023-05-21T03:39:56;95763.25;;;14.04;90.98
69411;BME280;56604;48.652;9.194;2023-05-21T03:42:22;95761.59;;;14.08;90.52
69411;BME280;56604;48.652;9.194;2023-05-21T03:44:47;95758.19;;;14.07;90.50
69411;BME280;56604;48.652;9.194;2023-05-21T03:47:12;95761.09;;;14.06;90.05
69411;BME280;56604;48.652;9.194;2023-05-21T03:49:38;95762.94;;;14.05;90.05
69411;BME280;56604;48.652;9.194;2023-05-21T03:52:03;95764.81;;;14.05;90.36
69411;BME280;56604;48.652;9.194;2023-05-21T03:54:29;95766.38;;;14.06;89.92
69411;BME280;56604;48.652;9.194;2023-05-21T03:56:54;95773.81;;;14.04;89.88
69411;BME280;56604;48.652;9.194;2023-05-21T03:59:20;95770.88;;;14.05;90.17
69411;BME280;56604;48.652;9.194;2023-05-21T04:01:45;95773.31;;;14.02;90.04
69411;BME280;56604;48.652;9.194;2023-05-21T04:04:11;95778.31;;;14.03;89.86
69411;BME280;56604;48.652;9.194;2023-05-21T04:06:36;95780.69;;;14.05;90.30
69411;BME280;56604;48.652;9.194;2023-05-21T04:09:02;95775.94;;;14.02;90.36
69411;BME280;56604;48.652;9.194;2023-05-21T04:11:28;95774.09;;;14.02;90.69
69411;BME280;56604;48.652;9.194;2023-05-21T04:13:54;95779.06;;;14.09;90.43
69411;BME280;56604;48.652;9.194;2023-05-21T04:16:19;95783.31;;;14.05;90.70
69411;BME280;56604;48.652;9.194;2023-05-21T04:18:45;95782.81;;;14.03;90.33
69411;BME280;56604;48.652;9.194;2023-05-21T04:21:10;95790.69;;;14.08;90.51
69411;BME280;56604;48.652;9.194;2023-05-21T04:23:36;95794.84;;;14.14;90.11
69411;BME280;56604;48.652;9.194;2023-05-21T04:26:01;95796.44;;;14.15;89.79
69411;BME280;56604;48.652;9.194;2023-05-21T04:28:26;95799.00;;;14.20;89.47
69411;BME280;56604;48.652;9.194;2023-05-21T04:30:52;95800.59;;;14.21;89.91
69411;BME280;56604;48.652;9.194;2023-05-21T04:33:18;95805.88;;;14.21;90.22
69411;BME280;56604;48.652;9.194;2023-05-21T04:35:49;95814.22;;;14.28;89.38
69411;BME280;56604;48.652;9.194;2023-05-21T04:38:18;95814.53;;;14.27;89.15
69411;BME280;56604;48.652;9.194;2023-05-21T04:40:48;95819.47;;;14.33;89.72
69411;BME280;56604;48.652;9.194;2023-05-21T04:43:17;95816.25;;;14.36;89.55
69411;BME280;56604;48.652;9.194;2023-05-21T04:45:49;95813.59;;;14.36;89.42
69411;BME280;56604;48.652;9.194;2023-05-21T04:48:15;95815.97;;;14.38;88.94
69411;BME280;56604;48.652;9.194;2023-05-21T04:50:40;95821.13;;;14.48;88.84
69411;BME280;56604;48.652;9.194;2023-05-21T04:53:05;95816.75;;;14.38;89.02
69411;BME280;56604;48.652;9.194;2023-05-21T04:55:31;95817.66;;;14.53;88.84
69411;BME280;56604;48.652;9.194;2023-05-21T04:57:56;95820.56;;;14.51;88.36
69411;BME280;56604;48.652;9.194;2023-05-21T05:00:21;95825.81;;;14.56;88.48
69411;BME280;56604;48.652;9.194;2023-05-21T05:02:46;95817.41;;;14.73;87.48
69411;BME280;56604;48.652;9.194;2023-05-21T05:05:12;95824.81;;;14.71;87.83
69411;BME280;56604;48.652;9.194;2023-05-21T05:07:37;95830.50;;;14.83;86.91
69411;BME280;56604;48.652;9.194;2023-05-21T05:10:03;95824.13;;;14.84;86.84
69411;BME280;56604;48.652;9.194;2023-05-21T05:12:28;95821.63;;;14.93;86.42
69411;BME280;56604;48.652;9.194;2023-05-21T05:14:54;95823.25;;;15.08;86.18
69411;BME280;56604;48.652;9.194;2023-05-21T05:17:19;95826.41;;;15.10;86.08
69411;BME280;56604;48.652;9.194;2023-05-21T05:19:44;95819.25;;;15.29;85.21
69411;BME280;56604;48.652;9.194;2023-05-21T05:22:09;95814.50;;;15.45;84.16
69411;BME280;56604;48.652;9.194;2023-05-21T05:24:35;95814.63;;;15.54;84.36
69411;BME280;56604;48.652;9.194;2023-05-21T05:27:00;95822.56;;;15.54;84.18
69411;BME280;56604;48.652;9.194;2023-05-21T05:29:26;95821.19;;;16.03;82.13
69411;BME280;56604;48.652;9.194;2023-05-21T05:31:51;95813.13;;;16.22;81.51
69411;BME280;56604;48.652;9.194;2023-05-21T05:34:16;95813.69;;;16.60;79.44
69411;BME280;56604;48.652;9.194;2023-05-21T05:36:42;95814.16;;;17.13;76.62
69411;BME280;56604;48.652;9.194;2023-05-21T05:39:07;95823.66;;;17.05;76.63
69411;BME280;56604;48.652;9.194;2023-05-21T05:41:32;95818.03;;;17.29;76.07
69411;BME280;56604;48.652;9.194;2023-05-21T05:43:58;95819.00;;;17.33;74.89
69411;BME280;56604;48.652;9.194;2023-05-21T05:46:23;95817.41;;;16.87;76.50
69411;BME280;56604;48.652;9.194;2023-05-21T05:48:48;95820.34;;;16.99;76.71
69411;BME280;56604;48.652;9.194;2023-05-21T05:51:14;95823.13;;;16.80;76.57
69411;BME280;56604;48.652;9.194;2023-05-21T05:53:39;95825.84;;;16.75;77.66
69411;BME280;56604;48.652;9.194;2023-05-21T05:56:05;95829.28;;;16.90;77.73
69411;BME280;56604;48.652;9.194;2023-05-21T05:58:31;95824.09;;;16.71;79.12
69411;BME280;56604;48.652;9.194;2023-05-21T06:00:56;95830.22;;;16.57;79.04
69411;BME280;56604;48.652;9.194;2023-05-21T06:03:22;95828.25;;;16.77;77.74
69411;BME280;56604;48.652;9.194;2023-05-21T06:05:47;95826.63;;;17.26;75.88
69411;BME280;56604;48.652;9.194;2023-05-21T06:08:12;95830.84;;;17.27;75.75
69411;BME280;56604;48.652;9.194;2023-05-21T06:10:37;95830.94;;;16.99;76.14
69411;BME280;56604;48.652;9.194;2023-05-21T06:13:03;95828.66;;;17.06;76.01
69411;BME280;56604;48.652;9.194;2023-05-21T06:15:28;95821.19;;;17.31;75.97
69411;BME280;56604;48.652;9.194;2023-05-21T06:17:54;95823.59;;;17.19;76.55
69411;BME280;56604;48.652;9.194;2023-05-21T06:20:19;95823.94;;;17.71;73.26
69411;BME280;56604;48.652;9.194;2023-05-21T06:22:45;95827.13;;;17.50;73.55
69411;BME280;56604;48.652;9.194;2023-05-21T06:25:10;95830.16;;;17.66;71.93
69411;BME280;56604;48.652;9.194;2023-05-21T06:27:38;95832.53;;;17.90;73.63
69411;BME280;56604;48.652;9.194;2023-05-21T06:30:04;95831.09;;;17.62;73.42
69411;BME280;56604;48.652;9.194;2023-05-21T06:32:30;95830.56;;;18.05;73.17
69411;BME280;56604;48.652;9.194;2023-05-21T06:34:55;95838.19;;;18.37;71.03
69411;BME280;56604;48.652;9.194;2023-05-21T06:37:20;95831.59;;;19.01;69.41
69411;BME280;56604;48.652;9.194;2023-05-21T06:39:46;95836.56;;;19.63;66.17
69411;BME280;56604;48.652;9.194;2023-05-21T06:42:11;95827.16;;;19.74;67.04
69411;BME280;56604;48.652;9.194;2023-05-21T06:44:36;95825.47;;;20.55;62.62
69411;BME280;56604;48.652;9.194;2023-05-21T06:47:02;95835.47;;;21.30;57.99
69411;BME280;56604;48.652;9.194;2023-05-21T06:49:27;95832.03;;;21.63;57.03
69411;BME280;56604;48.652;9.194;2023-05-21T06:51:52;95827.56;;;20.41;59.94
69411;BME280;56604;48.652;9.194;2023-05-21T06:54:18;95835.34;;;21.05;59.81
69411;BME280;56604;48.652;9.194;2023-05-21T06:56:43;95838.59;;;20.31;60.62
69411;BME280;56604;48.652;9.194;2023-05-21T06:59:08;95833.19;;;21.74;57.33
69411;BME280;56604;48.652;9.194;2023-05-21T07:01:34;95838.47;;;22.40;56.16
69411;BME280;56604;48.652;9.194;2023-05-21T07:04:00;95836.41;;;24.11;51.29
69411;BME280;56604;48.652;9.194;2023-05-21T07:06:25;95837.00;;;24.05;51.82
69411;BME280;56604;48.652;9.194;2023-05-21T07:08:50;95844.56;;;23.43;53.36
69411;BME280;56604;48.652;9.194;2023-05-21T07:11:16;95844.34;;;23.92;52.88
69411;BME280;56604;48.652;9.194;2023-05-21T07:13:41;95844.88;;;24.13;51.99
69411;BME280;56604;48.652;9.194;2023-05-21T07:16:06;95846.97;;;25.38;48.55
69411;BME280;56604;48.652;9.194;2023-05-21T07:18:32;95857.72;;;24.04;51.01
69411;BME280;56604;48.652;9.194;2023-05-21T07:20:57;95855.19;;;23.67;49.87
69411;BME280;56604;48.652;9.194;2023-05-21T07:23:23;95856.47;;;23.29;50.95
69411;BME280;56604;48.652;9.194;2023-05-21T07:25:48;95851.81;;;23.14;51.07
69411;BME280;56604;48.652;9.194;2023-05-21T07:28:14;95856.00;;;23.27;52.37
69411;BME280;56604;48.652;9.194;2023-05-21T07:30:39;95853.69;;;23.26;52.42
69411;BME280;56604;48.652;9.194;2023-05-21T07:33:05;95854.06;;;22.51;53.11
69411;BME280;56604;48.652;9.194;2023-05-21T07:35:30;95847.38;;;23.06;51.92
69411;BME280;56604;48.652;9.194;2023-05-21T07:37:55;95845.22;;;23.68;51.30
69411;BME280;56604;48.652;9.194;2023-05-21T07:40:21;95837.19;;;24.12;49.78
69411;BME280;56604;48.652;9.194;2023-05-21T07:42:46;95833.16;;;24.85;49.88
69411;BME280;56604;48.652;9.194;2023-05-21T07:45:11;95837.88;;;25.07;47.18
69411;BME280;56604;48.652;9.194;2023-05-21T07:47:36;95844.63;;;25.37;47.74
69411;BME280;56604;48.652;9.194;2023-05-21T07:50:02;95849.03;;;25.09;47.18
69411;BME280;56604;48.652;9.194;2023-05-21T07:52:27;95845.84;;;24.21;49.39
69411;BME280;56604;48.652;9.194;2023-05-21T07:54:53;95847.22;;;23.83;49.63
69411;BME280;56604;48.652;9.194;2023-05-21T07:57:18;95849.31;;;23.21;52.27
69411;BME280;56604;48.652;9.194;2023-05-21T07:59:43;95849.94;;;23.43;52.81
69411;BME280;56604;48.652;9.194;2023-05-21T08:02:09;95857.03;;;23.23;51.76
69411;BME280;56604;48.652;9.194;2023-05-21T08:04:34;95846.81;;;23.69;50.93
69411;BME280;56604;48.652;9.194;2023-05-21T08:07:00;95838.72;;;23.81;50.10
69411;BME280;56604;48.652;9.194;2023-05-21T08:09:25;95836.56;;;23.87;50.16
69411;BME280;56604;48.652;9.194;2023-05-21T08:11:50;95844.13;;;23.41;51.17
69411;BME280;56604;48.652;9.194;2023-05-21T08:14:15;95830.81;;;23.72;52.58
69411;BME280;56604;48.652;9.194;2023-05-21T08:16:41;95836.47;;;23.99;50.04
69411;BME280;56604;48.652;9.194;2023-05-21T08:19:07;95843.16;;;24.37;48.55
69411;BME280;56604;48.652;9.194;2023-05-21T08:21:32;95842.56;;;24.12;51.96
69411;BME280;56604;48.652;9.194;2023-05-21T08:23:58;95837.34;;;24.19;51.32
69411;BME280;56604;48.652;9.194;2023-05-21T08:26:24;95842.03;;;26.25;45.63
69411;BME280;56604;48.652;9.194;2023-05-21T08:28:50;95843.34;;;25.89;43.53
69411;BME280;56604;48.652;9.194;2023-05-21T08:31:17;95840.53;;;25.43;45.60
69411;BME280;56604;48.652;9.194;2023-05-21T08:33:49;95850.09;;;25.40;45.86
69411;BME280;56604;48.652;9.194;2023-05-21T08:36:15;95848.19;;;25.05;45.41
69411;BME280;56604;48.652;9.194;2023-05-21T08:38:41;95845.28;;;24.95;48.60
69411;BME280;56604;48.652;9.194;2023-05-21T08:41:06;95845.25;;;25.69;47.00
69411;BME280;56604;48.652;9.194;2023-05-21T08:43:33;95850.84;;;25.21;45.03
69411;BME280;56604;48.652;9.194;2023-05-21T08:46:02;95840.56;;;25.66;45.25
69411;BME280;56604;48.652;9.194;2023-05-21T08:48:30;95843.19;;;26.74;43.50
69411;BME280;56604;48.652;9.194;2023-05-21T08:50:55;95837.34;;;26.68;45.80
69411;BME280;56604;48.652;9.194;2023-05-21T08:53:22;95844.13;;;25.50;46.25
69411;BME280;56604;48.652;9.194;2023-05-21T08:55:50;95842.75;;;26.45;46.75
69411;BME280;56604;48.652;9.194;2023-05-21T08:58:17;95839.22;;;26.18;44.07
69411;BME280;56604;48.652;9.194;2023-05-21T09:00:42;95848.50;;;25.58;45.69
69411;BME280;56604;48.652;9.194;2023-05-21T09:03:09;95851.84;;;24.97;46.14
69411;BME280;56604;48.652;9.194;2023-05-21T09:05:40;95854.56;;;24.02;49.23
69411;BME280;56604;48.652;9.194;2023-05-21T09:08:20;95846.47;;;24.62;48.06
69411;BME280;56604;48.652;9.194;2023-05-21T09:10:49;95857.44;;;24.88;47.41
69411;BME280;56604;48.652;9.194;2023-05-21T09:13:16;95855.31;;;24.31;47.41
69411;BME280;56604;48.652;9.194;2023-05-21T09:15:43;95854.28;;;24.51;46.63
69411;BME280;56604;48.652;9.194;2023-05-21T09:18:08;95858.22;;;24.89;45.68
69411;BME280;56604;48.652;9.194;2023-05-21T09:20:34;95855.28;;;23.99;47.97
69411;BME280;56604;48.652;9.194;2023-05-21T09:23:02;95851.50;;;24.63;47.62
69411;BME280;56604;48.652;9.194;2023-05-21T09:25:29;95850.25;;;24.13;47.07
69411;BME280;56604;48.652;9.194;2023-05-21T09:27:55;95857.38;;;23.21;49.99
69411;BME280;56604;48.652;9.194;2023-05-21T09:30:20;95862.31;;;23.07;50.19
69411;BME280;56604;48.652;9.194;2023-05-21T09:32:52;95854.50;;;22.28;52.06
69411;BME280;56604;48.652;9.194;2023-05-21T09:35:19;95854.84;;;22.76;51.16
69411;BME280;56604;48.652;9.194;2023-05-21T09:37:47;95855.91;;;23.24;49.68
69411;BME280;56604;48.652;9.194;2023-05-21T09:40:17;95856.97;;;22.95;52.98
69411;BME280;56604;48.652;9.194;2023-05-21T09:42:51;95856.25;;;23.22;50.51
69411;BME280;56604;48.652;9.194;2023-05-21T09:45:20;95856.00;;;23.40;50.89
69411;BME280;56604;48.652;9.194;2023-05-21T09:47:47;95862.19;;;23.16;50.97
69411;BME280;56604;48.652;9.194;2023-05-21T09:50:17;95857.44;;;23.65;49.99
69411;BME280;56604;48.652;9.194;2023-05-21T09:52:43;95862.16;;;23.56;49.64
69411;BME280;56604;48.652;9.194;2023-05-21T09:55:10;95859.69;;;22.58;50.05
69411;BME280;56604;48.652;9.194;2023-05-21T09:57:41;95863.00;;;22.79;50.64
69411;BME280;56604;48.652;9.194;2023-05-21T10:00:08;95865.09;;;23.10;51.48
69411;BME280;56604;48.652;9.194;2023-05-21T10:02:36;95861.88;;;23.05;48.60
69411;BME280;56604;48.652;9.194;2023-05-21T10:05:04;95865.31;;;22.93;50.04
69411;BME280;56604;48.652;9.194;2023-05-21T10:07:33;95863.59;;;22.97;49.28
69411;BME280;56604;48.652;9.194;2023-05-21T10:10:02;95854.41;;;23.39;51.01
69411;BME280;56604;48.652;9.194;2023-05-21T10:12:29;95864.41;;;23.26;49.55
69411;BME280;56604;48.652;9.194;2023-05-21T10:14:59;95863.97;;;23.24;48.81
69411;BME280;56604;48.652;9.194;2023-05-21T10:17:31;95862.88;;;23.81;49.29
69411;BME280;56604;48.652;9.194;2023-05-21T10:19:58;95868.09;;;23.90;48.89
69411;BME280;56604;48.652;9.194;2023-05-21T10:22:23;95863.72;;;24.29;49.95
69411;BME280;56604;48.652;9.194;2023-05-21T10:24:49;95859.88;;;23.42;48.65
69411;BME280;56604;48.652;9.194;2023-05-21T10:27:16;95862.88;;;22.88;49.42
69411;BME280;56604;48.652;9.194;2023-05-21T10:29:44;95856.97;;;22.70;48.94
69411;BME280;56604;48.652;9.194;2023-05-21T10:32:14;95859.59;;;23.19;52.89
69411;BME280;56604;48.652;9.194;2023-05-21T10:34:39;95856.31;;;23.38;48.86
69411;BME280;56604;48.652;9.194;2023-05-21T10:37:07;95855.31;;;23.30;51.14
69411;BME280;56604;48.652;9.194;2023-05-21T10:39:33;95853.38;;;23.15;48.69
69411;BME280;56604;48.652;9.194;2023-05-21T10:42:15;95861.56;;;22.94;49.09
69411;BME280;56604;48.652;9.194;2023-05-21T10:55:55;95841.44;;;23.41;48.90
69411;BME280;56604;48.652;9.194;2023-05-21T10:58:44;95839.84;;;23.96;48.80
69411;BME280;56604;48.652;9.194;2023-05-21T11:01:14;95836.91;;;24.01;47.84
69411;BME280;56604;48.652;9.194;2023-05-21T11:03:40;95834.81;;;23.78;49.03
69411;BME280;56604;48.652;9.194;2023-05-21T11:06:05;95858.81;;;23.31;49.46
69411;BME280;56604;48.652;9.194;2023-05-21T11:08:32;95840.13;;;23.34;51.43
69411;BME280;56604;48.652;9.194;2023-05-21T11:11:00;95834.91;;;23.54;51.30
69411;BME280;56604;48.652;9.194;2023-05-21T11:13:27;95831.56;;;23.45;49.54
69411;BME280;56604;48.652;9.194;2023-05-21T11:26:20;95842.03;;;23.34;52.29
69411;BME280;56604;48.652;9.194;2023-05-21T11:28:49;95838.78;;;23.85;50.37
69411;BME280;56604;48.652;9.194;2023-05-21T11:31:21;95835.41;;;23.72;50.84
69411;BME280;56604;48.652;9.194;2023-05-21T11:33:47;95846.34;;;23.51;49.68
69411;BME280;56604;48.652;9.194;2023-05-21T11:36:32;95842.47;;;22.96;50.98
69411;BME280;56604;48.652;9.194;2023-05-21T11:39:31;95838.81;;;23.28;52.20
69411;BME280;56604;48.652;9.194;2023-05-21T11:42:04;95837.56;;;23.82;53.13
69411;BME280;56604;48.652;9.194;2023-05-21T11:44:43;95831.47;;;23.97;50.60
69411;BME280;56604;48.652;9.194;2023-05-21T11:47:13;95837.00;;;23.61;50.48
69411;BME280;56604;48.652;9.194;2023-05-21T11:49:42;95839.06;;;23.67;49.15
69411;BME280;56604;48.652;9.194;2023-05-21T11:52:09;95833.88;;;23.30;51.25
69411;BME280;56604;48.652;9.194;2023-05-21T11:54:42;95839.44;;;23.38;52.62
69411;BME280;56604;48.652;9.194;2023-05-21T11:57:10;95832.84;;;24.07;51.56
69411;BME280;56604;48.652;9.194;2023-05-21T11:59:36;95838.06;;;24.00;49.82
69411;BME280;56604;48.652;9.194;2023-05-21T12:02:03;95838.06;;;24.00;50.63
69411;BME280;56604;48.652;9.194;2023-05-21T12:04:30;95847.38;;;23.74;50.30
69411;BME280;56604;48.652;9.194;2023-05-21T12:06:55;95837.22;;;23.40;51.61
69411;BME280;56604;48.652;9.194;2023-05-21T12:09:22;95839.69;;;23.89;51.15
69411;BME280;56604;48.652;9.194;2023-05-21T12:11:48;95854.66;;;23.74;50.04
69411;BME280;56604;48.652;9.194;2023-05-21T12:14:14;95849.31;;;23.21;49.87
69411;BME280;56604;48.652;9.194;2023-05-21T12:16:40;95836.53;;;23.30;50.25
69411;BME280;56604;48.652;9.194;2023-05-21T12:19:05;95836.25;;;23.48;49.96
69411;BME280;56604;48.652;9.194;2023-05-21T12:21:31;95833.59;;;23.76;49.93
69411;BME280;56604;48.652;9.194;2023-05-21T12:23:57;95843.66;;;23.51;49.34
69411;BME280;56604;48.652;9.194;2023-05-21T12:26:24;95837.22;;;23.27;50.55
69411;BME280;56604;48.652;9.194;2023-05-21T12:28:52;95849.81;;;23.11;49.72
69411;BME280;56604;48.652;9.194;2023-05-21T12:31:19;95849.81;;;23.11;50.06
69411;BME280;56604;48.652;9.194;2023-05-21T12:33:47;95846.41;;;23.26;51.92
69411;BME280;56604;48.652;9.194;2023-05-21T12:36:27;95845.81;;;23.33;48.70
69411;BME280;56604;48.652;9.194;2023-05-21T12:38:53;95832.53;;;23.24;49.65
69411;BME280;56604;48.652;9.194;2023-05-21T12:41:20;95844.28;;;23.60;50.21
69411;BME280;56604;48.652;9.194;2023-05-21T12:43:46;95840.94;;;23.79;49.85
69411;BME280;56604;48.652;9.194;2023-05-21T12:46:12;95846.00;;;23.81;48.55
69411;BME280;56604;48.652;9.194;2023-05-21T12:49:07;95847.13;;;23.95;48.03
69411;BME280;56604;48.652;9.194;2023-05-21T12:51:37;95844.91;;;23.69;49.72
69411;BME280;56604;48.652;9.194;2023-05-21T12:54:10;95854.31;;;23.63;46.64
69411;BME280;56604;48.652;9.194;2023-05-21T12:56:43;95847.69;;;23.73;48.39
69411;BME280;56604;48.652;9.194;2023-05-21T12:59:13;95848.63;;;24.09;48.40
69411;BME280;56604;48.652;9.194;2023-05-21T13:01:39;95839.00;;;24.08;47.32
69411;BME280;56604;48.652;9.194;2023-05-21T13:04:05;95848.19;;;23.91;45.43
69411;BME280;56604;48.652;9.194;2023-05-21T13:06:40;95853.34;;;23.84;44.80
69411;BME280;56604;48.652;9.194;2023-05-21T13:09:06;95850.63;;;23.40;46.07
69411;BME280;56604;48.652;9.194;2023-05-21T13:11:31;95848.34;;;23.42;46.12
69411;BME280;56604;48.652;9.194;2023-05-21T13:13:56;95847.88;;;23.52;45.46
69411;BME280;56604;48.652;9.194;2023-05-21T13:16:21;95839.22;;;23.43;48.08
69411;BME280;56604;48.652;9.194;2023-05-21T13:18:47;95843.59;;;23.63;46.74
69411;BME280;56604;48.652;9.194;2023-05-21T13:21:12;95841.50;;;23.56;43.88
69411;BME280;56604;48.652;9.194;2023-05-21T13:23:38;95853.88;;;23.61;45.56